• Join FlightAware (Why Join?)
  • Login
  • US Flag 
11:26PM EDT


 

Airport Tracker/Info


-or-


 

Live Flight TrackerFlight Track Log ✈ N699PS ✈ 12-Jun-2013 ✈ KUUU - KILM

Flight Track Log - Related Links

Times and Time Zones

All times are in EDT time to prevent confusion due to time zone crossing. See the N699PS flight status page for this flight to view local times or setup timezone preferences in your user account.

Time Position Orientation Groundspeed Altitude Reporting Facility
EDT Latitude Longitude Course Direction KTS MPH feet Rate Location/Type
02:18PM 41.5092 -71.3147 209° Southwest 134 154 1,800  Level Boston Center
02:19PM 41.4553 -71.3544 209° Southwest 129 148 3,600 1,020 Climbing Boston Center
02:20PM 41.4347 -71.3881 231° Southwest 119 137 4,500 960 Climbing Boston Center
02:21PM 41.4164 -71.4242 236° Southwest 125 144 5,400 900 Climbing Boston Center
02:22PM 41.4000 -71.4550 235° Southwest 123 142 6,200 900 Climbing Boston Center
02:23PM 41.3794 -71.4967 237° Southwest 127 146 7,200 840 Climbing Boston Center
02:24PM 41.3589 -71.5331 233° Southwest 124 143 8,000 420 Climbing Boston Center
02:25PM 41.3383 -71.5692 233° Southwest 144 166 8,100  Climbing Boston Center
02:26PM 41.3075 -71.6222 232° Southwest 163 188 8,100  Level Boston Center
02:27PM 41.2786 -71.6750 234° Southwest 171 197 8,100  Level Boston Center
02:28PM 41.2497 -71.7250 232° Southwest 169 194 8,100  Level Boston Center
02:29PM 41.2231 -71.7778 236° Southwest 175 201 8,100  Level Boston Center
02:30PM 41.1961 -71.8250 233° Southwest 169 194 8,100  Level Boston Center
02:31PM 41.1611 -71.8775 228° Southwest 179 206 8,100  Level Boston Center
02:32PM 41.1342 -71.9303 236° Southwest 179 206 8,100  Level Boston Center
02:34PM 41.0844 -72.0106 231° Southwest 186 214 8,200  Climbing Boston Center
02:35PM 41.0494 -72.0767 235° Southwest 186 214 8,100 -60 Descending Boston Center
02:36PM 41.0183 -72.1292 232° Southwest 186 214 8,100  Level Boston Center
02:37PM 40.9892 -72.1817 234° Southwest 181 208 8,100  Level Boston Center
02:38PM 40.9603 -72.2339 234° Southwest 181 208 8,100  Level Boston Center
02:39PM 40.9311 -72.2836 232° Southwest 181 208 8,100  Level Boston Center
02:40PM 40.9000 -72.3358 232° Southwest 181 208 8,200  Climbing Boston Center
02:41PM 40.8583 -72.3797 219° Southwest 181 208 8,100  Descending Boston Center
02:42PM 40.8208 -72.4236 222° Southwest 186 214 8,200  Climbing Boston Center
02:43PM 40.7853 -72.4731 226° Southwest 186 214 8,200 -60 Level Boston Center
02:44PM 40.7456 -72.5194 222° Southwest 186 214 8,100  Descending Boston Center
02:45PM 40.7061 -72.5714 225° Southwest 186 214 8,200  Climbing Boston Center
02:46PM 40.6664 -72.6181 222° Southwest 186 214 8,200 -60 Level Boston Center
02:47PM 40.6289 -72.6644 223° Southwest 186 214 8,100  Descending Boston Center
02:48PM 40.5933 -72.7078 223° Southwest 186 214 8,200  Climbing Boston Center
02:49PM 40.5536 -72.7542 222° Southwest 186 214 8,100  Descending Boston Center
02:50PM 40.5158 -72.8006 223° Southwest 186 214 8,200  Climbing Boston Center
02:52PM 40.4406 -72.8953 224° Southwest 183 211 8,100 -60 Descending New York Center
02:53PM 40.4003 -72.9433 222° Southwest 183 211 8,100  Level New York Center
02:54PM 40.3681 -72.9858 225° Southwest 183 211 8,100  Level New York Center
02:55PM 40.3275 -73.0333 222° Southwest 183 211 8,100  Level New York Center
02:56PM 40.2936 -73.0731 222° Southwest 183 211 8,200  Climbing New York Center
02:57PM 40.2531 -73.1208 222° Southwest 188 216 8,200 -60 Level New York Center
02:58PM 40.2189 -73.1603 221° Southwest 188 216 8,100  Descending New York Center
02:59PM 40.1844 -73.2133 230° Southwest 177 204 8,200  Climbing New York Center
03:00PM 40.1542 -73.2558 227° Southwest 177 204 8,100 -60 Descending New York Center
03:01PM 40.1197 -73.3117 231° Southwest 184 212 8,100  Level New York Center
03:02PM 40.0897 -73.3511 225° Southwest 184 212 8,200  Climbing New York Center
03:03PM 40.0531 -73.4014 226° Southwest 184 212 8,200 -60 Level New York Center
03:04PM 40.0208 -73.4433 225° Southwest 184 212 8,100 -60 Descending New York Center
03:05PM 39.9842 -73.4989 229° Southwest 190 219 8,100  Level New York Center
03:06PM 39.9497 -73.5464 227° Southwest 185 213 8,100  Level New York Center
03:07PM 39.9175 -73.5911 227° Southwest 180 207 8,200  Climbing New York Center
03:08PM 39.8831 -73.6356 225° Southwest 180 207 8,100 -60 Descending New York Center
03:09PM 39.8506 -73.6803 227° Southwest 185 213 8,100  Level New York Center
03:10PM 39.8181 -73.7275 228° Southwest 185 213 8,200  Climbing New York Center
03:11PM 39.7858 -73.7747 228° Southwest 185 213 8,100 -60 Descending New York Center
03:12PM 39.7556 -73.8167 227° Southwest 185 213 8,100  Level New York Center
03:13PM 39.7231 -73.8611 226° Southwest 185 213 8,100  Level New York Center
03:14PM 39.6906 -73.9056 226° Southwest 185 213 8,200  Climbing New York Center
03:15PM 39.6622 -73.9475 229° Southwest 185 213 8,200 -60 Level New York Center
03:16PM 39.6175 -74.0047 225° Southwest 177 204 8,100  Descending Washington Center
03:17PM 39.5847 -74.0486 226° Southwest 177 204 8,200  Climbing Washington Center
03:18PM 39.5519 -74.0953 228° Southwest 171 197 8,100 -60 Descending Washington Center
03:19PM 39.5150 -74.1361 220° Southwest 171 197 8,100  Level Washington Center
03:20PM 39.4781 -74.1747 219° Southwest 177 204 8,200  Climbing Washington Center
03:21PM 39.4408 -74.2183 222° Southwest 182 209 8,100  Descending Washington Center
03:22PM 39.4061 -74.2594 222° Southwest 187 215 8,200  Climbing Washington Center
03:23PM 39.3689 -74.2975 218° Southwest 187 215 8,100 -60 Descending Washington Center
03:24PM 39.3361 -74.3358 222° Southwest 187 215 8,100  Level Washington Center
03:25PM 39.2989 -74.3767 220° Southwest 187 215 8,100  Level Washington Center
03:26PM 39.2617 -74.4175 220° Southwest 187 215 8,100  Level Washington Center
03:27PM 39.2267 -74.4556 220° Southwest 187 215 8,200  Climbing Washington Center
03:28PM 39.1897 -74.4989 222° Southwest 187 215 8,100 -60 Descending Washington Center
03:29PM 39.1503 -74.5397 219° Southwest 187 215 8,100  Level Washington Center
03:30PM 39.1153 -74.5778 220° Southwest 187 215 8,100  Level Washington Center
03:31PM 39.0803 -74.6156 220° Southwest 187 215 8,100 -60 Level Washington Center
03:32PM 39.0431 -74.6589 222° Southwest 187 215 8,000 -60 Descending Washington Center
03:33PM 39.0036 -74.6994 219° Southwest 187 215 8,000  Level Washington Center
03:34PM 38.9686 -74.7400 222° Southwest 182 209 8,000  Level Washington Center
03:35PM 38.9333 -74.7778 220° Southwest 182 209 8,000  Level Washington Center
03:36PM 38.8961 -74.8181 220° Southwest 182 209 8,000  Level Washington Center
03:37PM 38.8589 -74.8611 222° Southwest 182 209 8,000  Level Washington Center
03:38PM 38.8217 -74.8961 216° Southwest 182 209 8,000  Level Washington Center
03:39PM 38.7864 -74.9392 224° Southwest 182 209 8,000  Level Washington Center
03:40PM 38.7511 -74.9767 220° Southwest 182 209 8,000  Level Washington Center
03:41PM 38.7158 -75.0144 220° Southwest 182 209 8,000  Level Washington Center
03:42PM 38.6786 -75.0519 218° Southwest 182 209 8,000  Level Washington Center
03:43PM 38.6411 -75.0892 218° Southwest 182 209 8,000  Level Washington Center
03:44PM 38.5975 -75.1189 208° Southwest 182 209 8,000  Level Washington Center
03:45PM 38.5517 -75.1483 207° Southwest 177 204 8,000  Level Washington Center
03:46PM 38.5081 -75.1753 206° Southwest 182 209 8,000  Level Washington Center
03:47PM 38.4603 -75.2047 206° Southwest 182 209 8,000  Level Washington Center
03:48PM 38.4164 -75.2286 203° Southwest 182 209 8,000  Level Washington Center
03:49PM 38.3686 -75.2633 210° Southwest 188 216 8,000  Level Washington Center
03:50PM 38.3228 -75.2875 202° Southwest 188 216 8,000  Level Washington Center
03:51PM 38.2750 -75.3247 211° Southwest 193 222 8,000  Level Washington Center
03:52PM 38.2292 -75.3564 208° Southwest 198 228 8,000  Level Washington Center
03:53PM 38.1772 -75.3858 204° Southwest 193 222 8,100  Climbing Washington Center
03:54PM 38.1292 -75.4175 207° Southwest 193 222 8,000 -60 Descending Washington Center
03:55PM 38.0897 -75.4414 205° Southwest 198 228 8,000  Level Washington Center
03:56PM 38.0311 -75.4731 203° Southwest 198 228 8,000  Level Washington Center
03:57PM 37.9853 -75.5047 209° Southwest 198 228 8,000  Level Washington Center
03:58PM 37.9394 -75.5364 209° Southwest 198 228 8,000  Level Washington Center
03:59PM 37.8936 -75.5681 209° Southwest 193 222 8,000 60 Level Washington Center
04:00PM 37.8625 -75.5944 214° Southwest 187 215 8,100  Climbing Washington Center
04:00PM 37.8478 -75.5997 196° South 193 222 8,000 -120 Descending Washington Center
04:01PM 37.7997 -75.6311 207° Southwest 193 222 8,000 60 Level Washington Center
04:02PM 37.7872 -75.6444 220° Southwest 190 219 8,100  Climbing Washington Center
04:02PM 37.7561 -75.6628 205° Southwest 193 222 8,000 -120 Descending Washington Center
04:03PM 37.7394 -75.6758 212° Southwest 191 220 8,000  Level Washington Center
04:03PM 37.7081 -75.6942 205° Southwest 193 222 8,000  Level Washington Center
04:04PM 37.6892 -75.7100 214° Southwest 193 222 8,000  Level Washington Center
04:05PM 37.6539 -75.7333 208° Southwest 190 219 8,000  Level Washington Center
04:05PM 37.6142 -75.7597 208° Southwest 193 222 8,000  Level Washington Center
04:06PM 37.5703 -75.7883 207° Southwest 193 222 8,000  Level Washington Center
04:07PM 37.5578 -75.7989 214° Southwest 190 219 8,000  Level Washington Center
04:07PM 37.5222 -75.8197 205° Southwest 193 222 8,000  Level Washington Center
04:08PM 37.5097 -75.8300 213° Southwest 191 220 8,000  Level Washington Center
04:08PM 37.4742 -75.8508 205° Southwest 193 222 8,000  Level Washington Center
04:09PM 37.4553 -75.8664 213° Southwest 195 224 8,000  Level Washington Center
04:09PM 37.4261 -75.8822 203° Southwest 193 222 8,000  Level Washington Center
04:10PM 37.4072 -75.8978 213° Southwest 196 226 8,000  Level Washington Center
04:11PM 37.3592 -75.9317 209° Southwest 193 222 8,000  Level Washington Center
04:12PM 37.3092 -75.9625 206° Southwest 194 223 8,000  Level Washington Center
04:13PM 37.2631 -75.9936 208° Southwest 194 223 8,000  Level Washington Center
04:14PM 37.2192 -76.0222 207° Southwest 193 222 8,000  Level Washington Center
04:15PM 37.1711 -76.0558 209° Southwest 192 221 8,000  Level Washington Center
04:16PM 37.1292 -76.0817 206° Southwest 194 223 8,000  Level Washington Center
04:17PM 37.0853 -76.1125 209° Southwest 194 223 8,000  Level Washington Center
04:18PM 37.0289 -76.1461 205° Southwest 194 223 8,000  Level Washington Center
04:19PM 36.9767 -76.1819 209° Southwest 198 228 8,000  Level Washington Center
04:20PM 36.9283 -76.2156 209° Southwest 194 223 8,000  Level Washington Center
04:21PM 36.8781 -76.2489 208° Southwest 196 226 8,000  Level Washington Center
04:22PM 36.8300 -76.2822 209° Southwest 190 219 8,000  Level Washington Center
04:23PM 36.7819 -76.3128 207° Southwest 199 229 8,000  Level Washington Center
04:24PM 36.7211 -76.3511 207° Southwest 199 229 8,000  Level Washington Center
04:25PM 36.6856 -76.3767 210° Southwest 198 228 8,000  Level Washington Center
04:26PM 36.6394 -76.4022 204° Southwest 199 229 8,000  Level Washington Center
04:27PM 36.5933 -76.4328 208° Southwest 196 226 8,000  Level Washington Center
04:27PM 36.5764 -76.4456 211° Southwest 199 229 8,000  Level Washington Center
04:28PM 36.5431 -76.4683 209° Southwest 199 229 8,000  Level Washington Center
04:28PM 36.5283 -76.4758 202° Southwest 199 229 8,000  Level Washington Center
04:29PM 36.4822 -76.5064 208° Southwest 207 238 8,000  Level Washington Center
04:30PM 36.4339 -76.5394 209° Southwest 207 238 8,100  Climbing Washington Center
04:31PM 36.3836 -76.5697 206° Southwest 207 238 8,100  Level Washington Center
04:32PM 36.3353 -76.6028 209° Southwest 207 238 8,100  Level Washington Center
04:33PM 36.2850 -76.6331 206° Southwest 207 238 8,100  Level Washington Center
04:34PM 36.2347 -76.6633 206° Southwest 202 232 8,100  Level Washington Center
04:35PM 36.1864 -76.6933 207° Southwest 202 232 8,100  Level Washington Center
04:36PM 36.1381 -76.7261 209° Southwest 207 238 8,100  Level Washington Center
04:37PM 36.0878 -76.7589 208° Southwest 207 238 8,100  Level Washington Center
04:38PM 36.0394 -76.7892 207° Southwest 207 238 8,100  Level Washington Center
04:39PM 35.9892 -76.8217 208° Southwest 207 238 8,100  Level Washington Center
04:40PM 35.9367 -76.8542 207° Southwest 207 238 8,100  Level Washington Center
04:41PM 35.8883 -76.8867 209° Southwest 207 238 8,100  Level Washington Center
04:42PM 35.8378 -76.9219 209° Southwest 207 238 8,100  Level Washington Center
04:43PM 35.7872 -76.9542 207° Southwest 207 238 8,100  Level Washington Center
04:44PM 35.7350 -76.9814 203° Southwest 207 238 8,100  Level Washington Center
04:45PM 35.6844 -77.0164 209° Southwest 202 232 8,100  Level Washington Center
04:46PM 35.6361 -77.0461 207° Southwest 202 232 8,100  Level Washington Center
04:47PM 35.5919 -77.0786 211° Southwest 202 232 8,200  Climbing Washington Center
04:48PM 35.5372 -77.1083 204° Southwest 207 238 8,100 -60 Descending Washington Center
04:49PM 35.4908 -77.1431 211° Southwest 207 238 8,100  Level Washington Center
04:50PM 35.4425 -77.1753 209° Southwest 207 238 8,100  Level Washington Center
04:51PM 35.3878 -77.2072 205° Southwest 207 238 8,100  Level Washington Center
04:52PM 35.3372 -77.2369 206° Southwest 207 238 8,100  Level Washington Center
04:53PM 35.2867 -77.2714 209° Southwest 207 238 8,100  Level Washington Center
04:54PM 35.2342 -77.3033 206° Southwest 207 238 8,100  Level Washington Center
04:55PM 35.1814 -77.3353 206° Southwest 207 238 8,100  Level Washington Center
04:56PM 35.1331 -77.3672 208° Southwest 207 238 8,200  Climbing Washington Center
04:57PM 35.0803 -77.3992 206° Southwest 207 238 8,100 -120 Descending Washington Center
04:59PM 35.0085 -77.4297 199° South  Level FlightAware Approximate
05:06PM 34.6936 -77.6312 208° Southwest  Level FlightAware Approximate
05:07PM 34.6487 -77.6597 207° Southwest  Level FlightAware Approximate
05:08PM 34.6037 -77.6881 207° Southwest  Level FlightAware Approximate
05:09PM 34.5587 -77.7165 207° Southwest  Level FlightAware Approximate
05:10PM 34.5137 -77.7449 207° Southwest  Level FlightAware Approximate
05:11PM 34.4687 -77.7732 207° Southwest  Level FlightAware Approximate
05:12PM 34.4237 -77.8016 207° Southwest  Level FlightAware Approximate
05:13PM 34.3786 -77.8298 207° Southwest  Level FlightAware Approximate
05:14PM 34.3336 -77.8581 207° Southwest  Level FlightAware Approximate
05:15PM 34.2886 -77.8863 207° Southwest  Level FlightAware Approximate
05:16PM 34.2667 -77.9000 208° Southwest  Level FlightAware Approximate
05:17PM 34.2706 -77.9026 208° Southwest  Level Estimated
05:18PM 34.2667 -77.9000 208° Southwest  Level FlightAware Approximate
05:19PM 34.2706 -77.9026 208° Southwest  Level Estimated
05:20PM 34.2667 -77.9000 208° Southwest  Level FlightAware Approximate
05:21PM 34.2706 -77.9026 208° Southwest  Level Estimated
05:22PM 34.2667 -77.9000 208° Southwest  Level FlightAware Approximate
05:23PM 34.2706 -77.9026 208° Southwest  Level Estimated
05:24PM 34.2667 -77.9000 208° Southwest  Level FlightAware Approximate